sensor_id;sensor_type;location;lat;lon;timestamp;P1;durP1;ratioP1;P2;durP2;ratioP2
66353;SDS011;53150;48.296;16.452;2022-12-07T00:00:53;14.60;;;8.77;;
66353;SDS011;53150;48.296;16.452;2022-12-07T00:03:19;15.40;;;9.35;;
66353;SDS011;53150;48.296;16.452;2022-12-07T00:05:45;15.10;;;8.88;;
66353;SDS011;53150;48.296;16.452;2022-12-07T00:08:11;14.40;;;7.85;;
66353;SDS011;53150;48.296;16.452;2022-12-07T00:10:37;16.73;;;8.77;;
66353;SDS011;53150;48.296;16.452;2022-12-07T00:13:06;15.00;;;9.05;;
66353;SDS011;53150;48.296;16.452;2022-12-07T00:15:33;16.20;;;9.05;;
66353;SDS011;53150;48.296;16.452;2022-12-07T00:18:00;13.63;;;9.13;;
66353;SDS011;53150;48.296;16.452;2022-12-07T00:20:26;15.65;;;8.07;;
66353;SDS011;53150;48.296;16.452;2022-12-07T00:22:52;14.80;;;8.30;;
66353;SDS011;53150;48.296;16.452;2022-12-07T00:25:19;14.20;;;9.18;;
66353;SDS011;53150;48.296;16.452;2022-12-07T00:27:45;14.27;;;8.70;;
66353;SDS011;53150;48.296;16.452;2022-12-07T00:30:12;14.98;;;8.40;;
66353;SDS011;53150;48.296;16.452;2022-12-07T00:32:38;15.30;;;9.65;;
66353;SDS011;53150;48.296;16.452;2022-12-07T00:35:04;16.63;;;9.95;;
66353;SDS011;53150;48.296;16.452;2022-12-07T00:37:30;15.15;;;10.18;;
66353;SDS011;53150;48.296;16.452;2022-12-07T00:39:56;16.38;;;9.98;;
66353;SDS011;53150;48.296;16.452;2022-12-07T00:42:22;16.63;;;9.82;;
66353;SDS011;53150;48.296;16.452;2022-12-07T00:44:48;15.10;;;8.85;;
66353;SDS011;53150;48.296;16.452;2022-12-07T00:47:14;15.00;;;8.73;;
66353;SDS011;53150;48.296;16.452;2022-12-07T00:49:40;15.88;;;8.90;;
66353;SDS011;53150;48.296;16.452;2022-12-07T00:52:06;16.92;;;9.77;;
66353;SDS011;53150;48.296;16.452;2022-12-07T00:54:32;16.48;;;8.80;;
66353;SDS011;53150;48.296;16.452;2022-12-07T00:56:58;16.13;;;9.55;;
66353;SDS011;53150;48.296;16.452;2022-12-07T00:59:24;16.40;;;9.43;;
66353;SDS011;53150;48.296;16.452;2022-12-07T01:01:50;15.27;;;9.23;;
66353;SDS011;53150;48.296;16.452;2022-12-07T01:04:16;19.05;;;10.57;;
66353;SDS011;53150;48.296;16.452;2022-12-07T01:06:42;16.65;;;10.15;;
66353;SDS011;53150;48.296;16.452;2022-12-07T01:09:08;17.90;;;11.25;;
66353;SDS011;53150;48.296;16.452;2022-12-07T01:11:34;17.95;;;10.25;;
66353;SDS011;53150;48.296;16.452;2022-12-07T01:14:00;15.02;;;8.90;;
66353;SDS011;53150;48.296;16.452;2022-12-07T01:16:27;20.33;;;11.45;;
66353;SDS011;53150;48.296;16.452;2022-12-07T01:18:54;18.17;;;11.02;;
66353;SDS011;53150;48.296;16.452;2022-12-07T01:21:28;17.45;;;10.52;;
66353;SDS011;53150;48.296;16.452;2022-12-07T01:23:56;17.83;;;10.32;;
66353;SDS011;53150;48.296;16.452;2022-12-07T01:26:23;18.35;;;10.15;;
66353;SDS011;53150;48.296;16.452;2022-12-07T01:28:49;18.60;;;10.02;;
66353;SDS011;53150;48.296;16.452;2022-12-07T01:31:17;17.75;;;10.18;;
66353;SDS011;53150;48.296;16.452;2022-12-07T01:33:45;19.08;;;10.93;;
66353;SDS011;53150;48.296;16.452;2022-12-07T01:39:06;18.85;;;11.27;;
66353;SDS011;53150;48.296;16.452;2022-12-07T01:41:34;18.58;;;10.35;;
66353;SDS011;53150;48.296;16.452;2022-12-07T01:46:32;18.05;;;10.98;;
66353;SDS011;53150;48.296;16.452;2022-12-07T01:48:58;19.70;;;11.55;;
66353;SDS011;53150;48.296;16.452;2022-12-07T01:51:24;19.85;;;11.45;;
66353;SDS011;53150;48.296;16.452;2022-12-07T01:53:51;18.38;;;10.05;;
66353;SDS011;53150;48.296;16.452;2022-12-07T01:56:18;17.50;;;10.65;;
66353;SDS011;53150;48.296;16.452;2022-12-07T01:58:45;20.77;;;10.60;;
66353;SDS011;53150;48.296;16.452;2022-12-07T02:01:11;18.80;;;10.13;;
66353;SDS011;53150;48.296;16.452;2022-12-07T02:03:38;18.52;;;10.10;;
66353;SDS011;53150;48.296;16.452;2022-12-07T02:06:06;17.10;;;10.95;;
66353;SDS011;53150;48.296;16.452;2022-12-07T02:08:34;16.60;;;11.38;;
66353;SDS011;53150;48.296;16.452;2022-12-07T02:11:01;19.40;;;10.23;;
66353;SDS011;53150;48.296;16.452;2022-12-07T02:13:29;18.38;;;10.45;;
66353;SDS011;53150;48.296;16.452;2022-12-07T02:16:08;19.17;;;10.93;;
66353;SDS011;53150;48.296;16.452;2022-12-07T02:18:43;19.58;;;10.60;;
66353;SDS011;53150;48.296;16.452;2022-12-07T02:21:29;19.77;;;10.85;;
66353;SDS011;53150;48.296;16.452;2022-12-07T02:26:35;19.07;;;11.30;;
66353;SDS011;53150;48.296;16.452;2022-12-07T02:29:24;16.98;;;9.60;;
66353;SDS011;53150;48.296;16.452;2022-12-07T02:32:03;18.20;;;10.73;;
66353;SDS011;53150;48.296;16.452;2022-12-07T02:34:34;17.73;;;10.52;;
66353;SDS011;53150;48.296;16.452;2022-12-07T02:37:02;17.92;;;10.18;;
66353;SDS011;53150;48.296;16.452;2022-12-07T02:39:43;17.08;;;10.00;;
66353;SDS011;53150;48.296;16.452;2022-12-07T02:42:19;18.48;;;10.32;;
66353;SDS011;53150;48.296;16.452;2022-12-07T02:44:46;17.75;;;10.43;;
66353;SDS011;53150;48.296;16.452;2022-12-07T02:47:12;19.52;;;11.25;;
66353;SDS011;53150;48.296;16.452;2022-12-07T02:49:40;18.13;;;10.75;;
66353;SDS011;53150;48.296;16.452;2022-12-07T02:52:06;18.10;;;11.20;;
66353;SDS011;53150;48.296;16.452;2022-12-07T02:54:32;18.65;;;9.75;;
66353;SDS011;53150;48.296;16.452;2022-12-07T03:10:08;20.35;;;11.43;;
66353;SDS011;53150;48.296;16.452;2022-12-07T03:12:34;18.10;;;10.60;;
66353;SDS011;53150;48.296;16.452;2022-12-07T03:15:10;20.42;;;10.73;;
66353;SDS011;53150;48.296;16.452;2022-12-07T03:17:38;16.70;;;10.13;;
66353;SDS011;53150;48.296;16.452;2022-12-07T03:20:09;19.92;;;10.68;;
66353;SDS011;53150;48.296;16.452;2022-12-07T03:22:35;17.08;;;10.35;;
66353;SDS011;53150;48.296;16.452;2022-12-07T03:25:04;19.98;;;11.38;;
66353;SDS011;53150;48.296;16.452;2022-12-07T03:27:33;19.30;;;10.88;;
66353;SDS011;53150;48.296;16.452;2022-12-07T03:30:00;17.88;;;9.73;;
66353;SDS011;53150;48.296;16.452;2022-12-07T03:32:33;18.83;;;10.73;;
66353;SDS011;53150;48.296;16.452;2022-12-07T03:37:32;17.55;;;9.63;;
66353;SDS011;53150;48.296;16.452;2022-12-07T03:40:17;17.08;;;10.60;;
66353;SDS011;53150;48.296;16.452;2022-12-07T03:42:43;16.30;;;10.45;;
66353;SDS011;53150;48.296;16.452;2022-12-07T03:45:09;17.40;;;10.25;;
66353;SDS011;53150;48.296;16.452;2022-12-07T03:52:55;14.60;;;9.30;;
66353;SDS011;53150;48.296;16.452;2022-12-07T03:57:49;16.88;;;10.07;;
66353;SDS011;53150;48.296;16.452;2022-12-07T04:00:16;17.90;;;9.73;;
66353;SDS011;53150;48.296;16.452;2022-12-07T04:02:42;17.17;;;9.13;;
66353;SDS011;53150;48.296;16.452;2022-12-07T04:05:10;18.30;;;10.50;;
66353;SDS011;53150;48.296;16.452;2022-12-07T04:07:36;18.27;;;10.48;;
66353;SDS011;53150;48.296;16.452;2022-12-07T04:10:02;20.23;;;9.57;;
66353;SDS011;53150;48.296;16.452;2022-12-07T04:12:29;17.98;;;9.73;;
66353;SDS011;53150;48.296;16.452;2022-12-07T04:14:55;15.32;;;9.52;;
66353;SDS011;53150;48.296;16.452;2022-12-07T04:17:20;17.58;;;10.07;;
66353;SDS011;53150;48.296;16.452;2022-12-07T04:19:46;17.00;;;9.70;;
66353;SDS011;53150;48.296;16.452;2022-12-07T04:22:12;17.67;;;10.85;;
66353;SDS011;53150;48.296;16.452;2022-12-07T04:24:38;16.88;;;9.77;;
66353;SDS011;53150;48.296;16.452;2022-12-07T04:27:04;16.80;;;10.23;;
66353;SDS011;53150;48.296;16.452;2022-12-07T04:29:30;15.38;;;8.73;;
66353;SDS011;53150;48.296;16.452;2022-12-07T04:31:56;16.55;;;9.60;;
66353;SDS011;53150;48.296;16.452;2022-12-07T04:34:22;19.92;;;9.80;;
66353;SDS011;53150;48.296;16.452;2022-12-07T04:36:48;17.60;;;10.23;;
66353;SDS011;53150;48.296;16.452;2022-12-07T04:39:22;16.90;;;9.82;;
66353;SDS011;53150;48.296;16.452;2022-12-07T04:41:48;17.58;;;9.98;;
66353;SDS011;53150;48.296;16.452;2022-12-07T04:44:15;17.83;;;9.23;;
66353;SDS011;53150;48.296;16.452;2022-12-07T04:46:41;17.42;;;10.27;;
66353;SDS011;53150;48.296;16.452;2022-12-07T04:49:07;16.70;;;9.95;;
66353;SDS011;53150;48.296;16.452;2022-12-07T04:51:33;17.20;;;9.23;;
66353;SDS011;53150;48.296;16.452;2022-12-07T04:53:59;19.55;;;10.88;;
66353;SDS011;53150;48.296;16.452;2022-12-07T04:56:25;16.13;;;9.18;;
66353;SDS011;53150;48.296;16.452;2022-12-07T04:58:53;16.73;;;10.18;;
66353;SDS011;53150;48.296;16.452;2022-12-07T05:01:20;18.10;;;10.25;;
66353;SDS011;53150;48.296;16.452;2022-12-07T05:03:46;34.33;;;18.98;;
66353;SDS011;53150;48.296;16.452;2022-12-07T05:06:12;28.10;;;17.23;;
66353;SDS011;53150;48.296;16.452;2022-12-07T05:08:38;21.40;;;10.90;;
66353;SDS011;53150;48.296;16.452;2022-12-07T05:11:05;16.55;;;9.10;;
66353;SDS011;53150;48.296;16.452;2022-12-07T05:13:31;18.80;;;10.02;;
66353;SDS011;53150;48.296;16.452;2022-12-07T05:15:58;17.60;;;10.27;;
66353;SDS011;53150;48.296;16.452;2022-12-07T05:18:24;20.15;;;10.90;;
66353;SDS011;53150;48.296;16.452;2022-12-07T05:20:50;18.98;;;10.30;;
66353;SDS011;53150;48.296;16.452;2022-12-07T05:23:17;18.30;;;9.48;;
66353;SDS011;53150;48.296;16.452;2022-12-07T05:25:43;18.83;;;10.68;;
66353;SDS011;53150;48.296;16.452;2022-12-07T05:28:09;15.68;;;9.80;;
66353;SDS011;53150;48.296;16.452;2022-12-07T05:30:35;16.52;;;9.60;;
66353;SDS011;53150;48.296;16.452;2022-12-07T05:33:01;14.63;;;8.77;;
66353;SDS011;53150;48.296;16.452;2022-12-07T05:35:27;14.20;;;8.90;;
66353;SDS011;53150;48.296;16.452;2022-12-07T05:37:54;16.10;;;9.43;;
66353;SDS011;53150;48.296;16.452;2022-12-07T05:40:20;17.55;;;9.93;;
66353;SDS011;53150;48.296;16.452;2022-12-07T05:42:47;14.63;;;8.43;;
66353;SDS011;53150;48.296;16.452;2022-12-07T05:45:13;15.45;;;9.80;;
66353;SDS011;53150;48.296;16.452;2022-12-07T05:47:40;15.65;;;9.07;;
66353;SDS011;53150;48.296;16.452;2022-12-07T05:50:06;15.30;;;8.77;;
66353;SDS011;53150;48.296;16.452;2022-12-07T05:52:33;13.45;;;9.18;;
66353;SDS011;53150;48.296;16.452;2022-12-07T05:54:59;15.80;;;10.07;;
66353;SDS011;53150;48.296;16.452;2022-12-07T05:57:25;15.73;;;9.27;;
66353;SDS011;53150;48.296;16.452;2022-12-07T05:59:51;16.02;;;9.48;;
66353;SDS011;53150;48.296;16.452;2022-12-07T06:02:17;14.90;;;8.80;;
66353;SDS011;53150;48.296;16.452;2022-12-07T06:04:45;15.85;;;9.80;;
66353;SDS011;53150;48.296;16.452;2022-12-07T06:07:12;25.08;;;16.63;;
66353;SDS011;53150;48.296;16.452;2022-12-07T06:09:38;23.38;;;13.43;;
66353;SDS011;53150;48.296;16.452;2022-12-07T06:12:04;24.15;;;12.98;;
66353;SDS011;53150;48.296;16.452;2022-12-07T06:14:49;21.60;;;12.52;;
66353;SDS011;53150;48.296;16.452;2022-12-07T06:17:16;18.48;;;11.90;;
66353;SDS011;53150;48.296;16.452;2022-12-07T06:19:42;20.38;;;12.48;;
66353;SDS011;53150;48.296;16.452;2022-12-07T06:22:08;21.33;;;11.75;;
66353;SDS011;53150;48.296;16.452;2022-12-07T06:24:36;19.23;;;11.40;;
66353;SDS011;53150;48.296;16.452;2022-12-07T06:27:02;18.02;;;12.20;;
66353;SDS011;53150;48.296;16.452;2022-12-07T06:29:30;16.58;;;10.20;;
66353;SDS011;53150;48.296;16.452;2022-12-07T06:31:56;15.05;;;9.13;;
66353;SDS011;53150;48.296;16.452;2022-12-07T06:34:23;12.30;;;8.00;;
66353;SDS011;53150;48.296;16.452;2022-12-07T06:36:50;16.30;;;8.50;;
66353;SDS011;53150;48.296;16.452;2022-12-07T06:39:22;13.55;;;7.68;;
66353;SDS011;53150;48.296;16.452;2022-12-07T06:41:49;14.90;;;8.32;;
66353;SDS011;53150;48.296;16.452;2022-12-07T06:44:16;12.35;;;7.60;;
66353;SDS011;53150;48.296;16.452;2022-12-07T06:46:43;11.75;;;7.50;;
66353;SDS011;53150;48.296;16.452;2022-12-07T06:49:09;13.73;;;6.90;;
66353;SDS011;53150;48.296;16.452;2022-12-07T06:51:35;14.38;;;7.68;;
66353;SDS011;53150;48.296;16.452;2022-12-07T06:54:05;12.88;;;7.07;;
66353;SDS011;53150;48.296;16.452;2022-12-07T06:56:31;11.57;;;6.43;;
66353;SDS011;53150;48.296;16.452;2022-12-07T06:58:57;13.23;;;8.00;;
66353;SDS011;53150;48.296;16.452;2022-12-07T07:01:23;14.65;;;8.27;;
66353;SDS011;53150;48.296;16.452;2022-12-07T07:03:49;23.80;;;9.45;;
66353;SDS011;53150;48.296;16.452;2022-12-07T07:06:15;15.15;;;8.57;;
66353;SDS011;53150;48.296;16.452;2022-12-07T07:08:42;15.10;;;8.45;;
66353;SDS011;53150;48.296;16.452;2022-12-07T07:11:08;20.27;;;8.93;;
66353;SDS011;53150;48.296;16.452;2022-12-07T07:13:35;11.63;;;6.70;;
66353;SDS011;53150;48.296;16.452;2022-12-07T07:16:01;14.00;;;7.00;;
66353;SDS011;53150;48.296;16.452;2022-12-07T07:18:27;23.08;;;7.18;;
66353;SDS011;53150;48.296;16.452;2022-12-07T07:20:56;12.50;;;6.53;;
66353;SDS011;53150;48.296;16.452;2022-12-07T07:23:22;15.40;;;6.85;;
66353;SDS011;53150;48.296;16.452;2022-12-07T07:25:48;17.33;;;7.63;;
66353;SDS011;53150;48.296;16.452;2022-12-07T07:28:14;14.35;;;8.63;;
66353;SDS011;53150;48.296;16.452;2022-12-07T07:30:40;13.27;;;7.85;;
66353;SDS011;53150;48.296;16.452;2022-12-07T07:33:07;16.48;;;8.60;;
66353;SDS011;53150;48.296;16.452;2022-12-07T07:35:33;15.38;;;8.25;;
66353;SDS011;53150;48.296;16.452;2022-12-07T07:38:00;16.25;;;8.57;;
66353;SDS011;53150;48.296;16.452;2022-12-07T07:40:26;15.60;;;8.45;;
66353;SDS011;53150;48.296;16.452;2022-12-07T07:42:54;14.95;;;8.45;;
66353;SDS011;53150;48.296;16.452;2022-12-07T07:45:20;16.20;;;8.48;;
66353;SDS011;53150;48.296;16.452;2022-12-07T07:47:49;13.82;;;7.70;;
66353;SDS011;53150;48.296;16.452;2022-12-07T07:50:18;11.23;;;6.70;;
66353;SDS011;53150;48.296;16.452;2022-12-07T07:52:45;14.15;;;6.45;;
66353;SDS011;53150;48.296;16.452;2022-12-07T07:55:11;13.45;;;6.78;;
66353;SDS011;53150;48.296;16.452;2022-12-07T07:57:38;13.68;;;7.10;;
66353;SDS011;53150;48.296;16.452;2022-12-07T08:00:05;18.30;;;7.97;;
66353;SDS011;53150;48.296;16.452;2022-12-07T08:02:31;17.88;;;7.35;;
66353;SDS011;53150;48.296;16.452;2022-12-07T08:04:58;12.38;;;7.07;;
66353;SDS011;53150;48.296;16.452;2022-12-07T08:07:24;11.82;;;6.43;;
66353;SDS011;53150;48.296;16.452;2022-12-07T08:09:50;12.00;;;7.32;;
66353;SDS011;53150;48.296;16.452;2022-12-07T08:12:16;12.40;;;6.80;;
66353;SDS011;53150;48.296;16.452;2022-12-07T08:14:42;15.05;;;8.05;;
66353;SDS011;53150;48.296;16.452;2022-12-07T08:17:08;11.75;;;7.07;;
66353;SDS011;53150;48.296;16.452;2022-12-07T08:19:34;11.50;;;6.15;;
66353;SDS011;53150;48.296;16.452;2022-12-07T08:22:00;12.13;;;7.75;;
66353;SDS011;53150;48.296;16.452;2022-12-07T08:24:26;12.23;;;6.93;;
66353;SDS011;53150;48.296;16.452;2022-12-07T08:26:52;15.13;;;9.15;;
66353;SDS011;53150;48.296;16.452;2022-12-07T08:29:18;13.60;;;6.35;;
66353;SDS011;53150;48.296;16.452;2022-12-07T08:31:45;10.88;;;5.63;;
66353;SDS011;53150;48.296;16.452;2022-12-07T08:34:11;11.50;;;5.57;;
66353;SDS011;53150;48.296;16.452;2022-12-07T08:36:38;15.20;;;5.80;;
66353;SDS011;53150;48.296;16.452;2022-12-07T08:39:04;18.67;;;9.63;;
66353;SDS011;53150;48.296;16.452;2022-12-07T08:41:30;12.55;;;7.22;;
66353;SDS011;53150;48.296;16.452;2022-12-07T08:43:56;13.35;;;5.03;;
66353;SDS011;53150;48.296;16.452;2022-12-07T08:46:41;9.48;;;5.20;;
66353;SDS011;53150;48.296;16.452;2022-12-07T08:49:11;10.20;;;4.30;;
66353;SDS011;53150;48.296;16.452;2022-12-07T08:51:39;10.38;;;6.28;;
66353;SDS011;53150;48.296;16.452;2022-12-07T08:54:06;14.07;;;9.45;;
66353;SDS011;53150;48.296;16.452;2022-12-07T08:56:33;14.52;;;9.10;;
66353;SDS011;53150;48.296;16.452;2022-12-07T08:58:59;8.57;;;4.25;;
66353;SDS011;53150;48.296;16.452;2022-12-07T09:01:25;8.82;;;5.15;;
66353;SDS011;53150;48.296;16.452;2022-12-07T09:03:52;8.23;;;4.32;;
66353;SDS011;53150;48.296;16.452;2022-12-07T09:06:18;9.68;;;5.63;;
66353;SDS011;53150;48.296;16.452;2022-12-07T09:08:46;10.18;;;5.47;;
66353;SDS011;53150;48.296;16.452;2022-12-07T09:11:13;8.23;;;4.32;;
66353;SDS011;53150;48.296;16.452;2022-12-07T09:13:39;9.80;;;4.57;;
66353;SDS011;53150;48.296;16.452;2022-12-07T09:16:05;8.93;;;5.47;;
66353;SDS011;53150;48.296;16.452;2022-12-07T09:18:31;10.13;;;5.40;;
66353;SDS011;53150;48.296;16.452;2022-12-07T09:20:57;9.32;;;5.35;;
66353;SDS011;53150;48.296;16.452;2022-12-07T09:23:23;12.00;;;5.88;;
66353;SDS011;53150;48.296;16.452;2022-12-07T09:25:49;16.55;;;6.35;;
66353;SDS011;53150;48.296;16.452;2022-12-07T09:28:15;10.52;;;6.43;;
66353;SDS011;53150;48.296;16.452;2022-12-07T09:30:45;12.05;;;7.15;;
66353;SDS011;53150;48.296;16.452;2022-12-07T09:33:11;10.10;;;5.22;;
66353;SDS011;53150;48.296;16.452;2022-12-07T09:35:37;10.32;;;5.63;;
66353;SDS011;53150;48.296;16.452;2022-12-07T09:38:03;8.57;;;5.18;;
66353;SDS011;53150;48.296;16.452;2022-12-07T09:40:29;10.57;;;5.38;;
66353;SDS011;53150;48.296;16.452;2022-12-07T09:42:55;9.50;;;5.28;;
66353;SDS011;53150;48.296;16.452;2022-12-07T09:45:26;8.93;;;5.13;;
66353;SDS011;53150;48.296;16.452;2022-12-07T09:47:53;7.88;;;4.53;;
66353;SDS011;53150;48.296;16.452;2022-12-07T09:50:23;7.13;;;3.72;;
66353;SDS011;53150;48.296;16.452;2022-12-07T09:52:50;7.15;;;4.00;;
66353;SDS011;53150;48.296;16.452;2022-12-07T09:55:22;8.52;;;4.35;;
66353;SDS011;53150;48.296;16.452;2022-12-07T09:57:49;8.02;;;3.95;;
66353;SDS011;53150;48.296;16.452;2022-12-07T10:00:17;9.18;;;5.20;;
66353;SDS011;53150;48.296;16.452;2022-12-07T10:05:21;9.40;;;4.90;;
66353;SDS011;53150;48.296;16.452;2022-12-07T10:07:48;10.10;;;4.80;;
66353;SDS011;53150;48.296;16.452;2022-12-07T10:10:15;7.20;;;4.10;;
66353;SDS011;53150;48.296;16.452;2022-12-07T10:13:03;8.23;;;4.20;;
66353;SDS011;53150;48.296;16.452;2022-12-07T10:15:40;7.97;;;4.22;;
66353;SDS011;53150;48.296;16.452;2022-12-07T10:18:16;5.82;;;3.38;;
66353;SDS011;53150;48.296;16.452;2022-12-07T10:20:43;6.15;;;3.55;;
66353;SDS011;53150;48.296;16.452;2022-12-07T10:23:13;6.88;;;3.78;;
66353;SDS011;53150;48.296;16.452;2022-12-07T10:25:40;7.07;;;3.95;;
66353;SDS011;53150;48.296;16.452;2022-12-07T10:30:34;9.23;;;3.63;;
66353;SDS011;53150;48.296;16.452;2022-12-07T10:33:30;7.25;;;4.18;;
66353;SDS011;53150;48.296;16.452;2022-12-07T10:35:56;12.85;;;5.07;;
66353;SDS011;53150;48.296;16.452;2022-12-07T10:38:24;7.47;;;4.03;;
66353;SDS011;53150;48.296;16.452;2022-12-07T10:41:02;7.10;;;4.05;;
66353;SDS011;53150;48.296;16.452;2022-12-07T10:43:30;6.03;;;3.55;;
66353;SDS011;53150;48.296;16.452;2022-12-07T10:46:18;7.55;;;3.70;;
66353;SDS011;53150;48.296;16.452;2022-12-07T10:49:03;9.38;;;3.67;;
66353;SDS011;53150;48.296;16.452;2022-12-07T10:51:37;6.35;;;3.92;;
66353;SDS011;53150;48.296;16.452;2022-12-07T10:54:10;6.70;;;4.30;;
66353;SDS011;53150;48.296;16.452;2022-12-07T11:05:27;7.18;;;4.32;;
66353;SDS011;53150;48.296;16.452;2022-12-07T11:07:34;8.48;;;4.38;;
66353;SDS011;53150;48.296;16.452;2022-12-07T11:12:47;6.10;;;3.30;;
66353;SDS011;53150;48.296;16.452;2022-12-07T11:15:26;7.78;;;4.15;;
66353;SDS011;53150;48.296;16.452;2022-12-07T11:18:20;6.53;;;4.10;;
66353;SDS011;53150;48.296;16.452;2022-12-07T11:20:43;7.68;;;3.42;;
66353;SDS011;53150;48.296;16.452;2022-12-07T11:23:26;6.32;;;3.50;;
66353;SDS011;53150;48.296;16.452;2022-12-07T11:36:33;6.18;;;3.25;;
66353;SDS011;53150;48.296;16.452;2022-12-07T11:39:07;7.15;;;3.83;;
66353;SDS011;53150;48.296;16.452;2022-12-07T11:41:35;6.70;;;3.95;;
66353;SDS011;53150;48.296;16.452;2022-12-07T11:44:08;8.52;;;4.15;;
66353;SDS011;53150;48.296;16.452;2022-12-07T11:46:49;8.57;;;4.20;;
66353;SDS011;53150;48.296;16.452;2022-12-07T11:51:42;7.53;;;4.75;;
66353;SDS011;53150;48.296;16.452;2022-12-07T11:54:21;6.82;;;3.88;;
66353;SDS011;53150;48.296;16.452;2022-12-07T11:56:49;6.82;;;4.00;;
66353;SDS011;53150;48.296;16.452;2022-12-07T11:59:23;8.55;;;4.28;;
66353;SDS011;53150;48.296;16.452;2022-12-07T12:01:58;7.05;;;4.35;;
66353;SDS011;53150;48.296;16.452;2022-12-07T12:07:11;6.70;;;4.10;;
66353;SDS011;53150;48.296;16.452;2022-12-07T12:09:43;7.20;;;4.10;;
66353;SDS011;53150;48.296;16.452;2022-12-07T12:22:22;8.10;;;4.40;;
66353;SDS011;53150;48.296;16.452;2022-12-07T12:24:52;9.15;;;4.10;;
66353;SDS011;53150;48.296;16.452;2022-12-07T12:27:33;6.88;;;3.90;;
66353;SDS011;53150;48.296;16.452;2022-12-07T12:30:05;7.47;;;4.45;;
66353;SDS011;53150;48.296;16.452;2022-12-07T12:32:53;7.65;;;4.38;;
66353;SDS011;53150;48.296;16.452;2022-12-07T12:37:48;8.48;;;3.97;;
66353;SDS011;53150;48.296;16.452;2022-12-07T12:42:47;6.88;;;3.72;;
66353;SDS011;53150;48.296;16.452;2022-12-07T12:48:04;7.85;;;4.05;;
66353;SDS011;53150;48.296;16.452;2022-12-07T12:50:33;7.20;;;3.72;;
66353;SDS011;53150;48.296;16.452;2022-12-07T12:53:03;6.95;;;4.03;;
66353;SDS011;53150;48.296;16.452;2022-12-07T13:00:46;7.00;;;3.85;;
66353;SDS011;53150;48.296;16.452;2022-12-07T13:03:26;10.25;;;5.22;;
66353;SDS011;53150;48.296;16.452;2022-12-07T13:08:40;7.13;;;4.05;;
66353;SDS011;53150;48.296;16.452;2022-12-07T13:11:16;7.28;;;4.00;;
66353;SDS011;53150;48.296;16.452;2022-12-07T13:13:43;6.95;;;3.70;;
66353;SDS011;53150;48.296;16.452;2022-12-07T13:18:37;7.15;;;4.00;;
66353;SDS011;53150;48.296;16.452;2022-12-07T13:26:04;8.07;;;4.22;;
66353;SDS011;53150;48.296;16.452;2022-12-07T13:28:41;8.15;;;4.90;;
66353;SDS011;53150;48.296;16.452;2022-12-07T13:33:41;7.93;;;4.35;;
66353;SDS011;53150;48.296;16.452;2022-12-07T13:36:14;9.30;;;4.68;;
66353;SDS011;53150;48.296;16.452;2022-12-07T13:38:48;6.80;;;3.55;;
66353;SDS011;53150;48.296;16.452;2022-12-07T13:41:16;8.27;;;4.07;;
66353;SDS011;53150;48.296;16.452;2022-12-07T13:43:53;6.97;;;4.00;;
66353;SDS011;53150;48.296;16.452;2022-12-07T13:46:22;7.82;;;4.45;;
66353;SDS011;53150;48.296;16.452;2022-12-07T13:48:50;7.47;;;3.67;;
66353;SDS011;53150;48.296;16.452;2022-12-07T13:53:49;6.78;;;3.50;;
66353;SDS011;53150;48.296;16.452;2022-12-07T13:56:15;10.20;;;3.70;;
66353;SDS011;53150;48.296;16.452;2022-12-07T13:58:42;7.10;;;3.83;;
66353;SDS011;53150;48.296;16.452;2022-12-07T14:01:08;6.78;;;3.70;;
66353;SDS011;53150;48.296;16.452;2022-12-07T14:03:35;7.75;;;3.92;;
66353;SDS011;53150;48.296;16.452;2022-12-07T14:08:30;7.13;;;4.25;;
66353;SDS011;53150;48.296;16.452;2022-12-07T14:10:56;8.65;;;4.53;;
66353;SDS011;53150;48.296;16.452;2022-12-07T14:15:52;7.72;;;4.28;;
66353;SDS011;53150;48.296;16.452;2022-12-07T14:18:38;8.82;;;4.40;;
66353;SDS011;53150;48.296;16.452;2022-12-07T14:23:30;8.07;;;4.30;;
66353;SDS011;53150;48.296;16.452;2022-12-07T14:28:38;9.90;;;5.00;;
66353;SDS011;53150;48.296;16.452;2022-12-07T14:31:13;9.77;;;4.93;;
66353;SDS011;53150;48.296;16.452;2022-12-07T14:33:39;7.35;;;4.10;;
66353;SDS011;53150;48.296;16.452;2022-12-07T14:36:07;8.80;;;5.15;;
66353;SDS011;53150;48.296;16.452;2022-12-07T14:38:34;7.57;;;3.95;;
66353;SDS011;53150;48.296;16.452;2022-12-07T14:41:00;9.05;;;4.97;;
66353;SDS011;53150;48.296;16.452;2022-12-07T14:44:11;9.98;;;4.60;;
66353;SDS011;53150;48.296;16.452;2022-12-07T14:49:03;8.02;;;3.78;;
66353;SDS011;53150;48.296;16.452;2022-12-07T14:51:30;10.15;;;5.15;;
66353;SDS011;53150;48.296;16.452;2022-12-07T14:53:56;8.60;;;4.45;;
66353;SDS011;53150;48.296;16.452;2022-12-07T14:56:22;7.32;;;4.40;;
66353;SDS011;53150;48.296;16.452;2022-12-07T14:58:48;8.93;;;5.13;;
66353;SDS011;53150;48.296;16.452;2022-12-07T15:01:14;8.75;;;5.07;;
66353;SDS011;53150;48.296;16.452;2022-12-07T15:03:40;10.35;;;4.63;;
66353;SDS011;53150;48.296;16.452;2022-12-07T15:06:06;9.38;;;4.55;;
66353;SDS011;53150;48.296;16.452;2022-12-07T15:08:32;8.85;;;4.95;;
66353;SDS011;53150;48.296;16.452;2022-12-07T15:10:59;8.30;;;4.80;;
66353;SDS011;53150;48.296;16.452;2022-12-07T15:13:25;9.50;;;4.90;;
66353;SDS011;53150;48.296;16.452;2022-12-07T15:16:09;7.80;;;4.47;;
66353;SDS011;53150;48.296;16.452;2022-12-07T15:18:36;8.55;;;5.10;;
66353;SDS011;53150;48.296;16.452;2022-12-07T15:21:02;10.32;;;5.35;;
66353;SDS011;53150;48.296;16.452;2022-12-07T15:23:28;9.63;;;4.90;;
66353;SDS011;53150;48.296;16.452;2022-12-07T15:25:54;12.43;;;5.32;;
66353;SDS011;53150;48.296;16.452;2022-12-07T15:28:20;10.57;;;4.82;;
66353;SDS011;53150;48.296;16.452;2022-12-07T15:30:46;9.45;;;4.90;;
66353;SDS011;53150;48.296;16.452;2022-12-07T15:33:15;8.45;;;4.55;;
66353;SDS011;53150;48.296;16.452;2022-12-07T15:35:41;9.27;;;4.68;;
66353;SDS011;53150;48.296;16.452;2022-12-07T15:38:07;8.07;;;4.70;;
66353;SDS011;53150;48.296;16.452;2022-12-07T15:40:34;8.73;;;4.47;;
66353;SDS011;53150;48.296;16.452;2022-12-07T15:43:02;12.13;;;5.85;;
66353;SDS011;53150;48.296;16.452;2022-12-07T15:45:29;8.68;;;4.75;;
66353;SDS011;53150;48.296;16.452;2022-12-07T15:47:55;10.18;;;5.07;;
66353;SDS011;53150;48.296;16.452;2022-12-07T15:50:21;11.02;;;5.15;;
66353;SDS011;53150;48.296;16.452;2022-12-07T15:52:48;9.18;;;4.80;;
66353;SDS011;53150;48.296;16.452;2022-12-07T15:55:15;8.82;;;4.28;;
66353;SDS011;53150;48.296;16.452;2022-12-07T15:57:41;10.95;;;5.80;;
66353;SDS011;53150;48.296;16.452;2022-12-07T16:00:07;10.20;;;5.57;;
66353;SDS011;53150;48.296;16.452;2022-12-07T16:02:34;9.85;;;4.55;;
66353;SDS011;53150;48.296;16.452;2022-12-07T16:05:00;10.55;;;5.20;;
66353;SDS011;53150;48.296;16.452;2022-12-07T16:07:26;10.48;;;5.68;;
66353;SDS011;53150;48.296;16.452;2022-12-07T16:09:52;12.13;;;5.75;;
66353;SDS011;53150;48.296;16.452;2022-12-07T16:12:18;8.68;;;4.97;;
66353;SDS011;53150;48.296;16.452;2022-12-07T16:14:44;10.35;;;5.78;;
66353;SDS011;53150;48.296;16.452;2022-12-07T16:17:10;11.60;;;5.47;;
66353;SDS011;53150;48.296;16.452;2022-12-07T16:19:36;9.40;;;5.20;;
66353;SDS011;53150;48.296;16.452;2022-12-07T16:22:02;10.55;;;5.35;;
66353;SDS011;53150;48.296;16.452;2022-12-07T16:24:29;10.57;;;5.07;;